METAR Reports From Nearby Airports

 

KLUD - Decatur, Texas, USA
Distance from Wildwood: WsPdWs 5mi, 8km
Aktualizacja: Apr 08, 2020 5:15pm
Bezchmurnie
Bezchmurnie
 Wiatr z ZdPdZa
Wiatr: ZdPdZa 9 mph , 15 km/h, Poryw: 17 mph , 28 km/h
Temperatura: 91°F , 33°C
Punkt Rosy: 41°F , 5°C
Wilgotność: 17%
Ciśnienie: 29.77 inHg , 1008.1 hPa
Clouds: Bezchmurnie
Visibility: 7 miles , 11 km
2020/04/08 22:15 KLUD 082215Z AUTO 25008G15KT 7SM CLR 33/05 A2977 RMK AO2 T03300050
KXBP - Bridgeport, Texas, USA
Distance from Wildwood: ZdPdZa 11mi, 18km
Aktualizacja: Apr 08, 2020 5:15pm
Bezchmurnie
Bezchmurnie
 Wiatr z Zd
Wiatr: Zd 6 mph , 9 km/h
Temperatura: 91°F , 33°C
Punkt Rosy: 45°F , 7°C
Wilgotność: 20%
Ciśnienie: 29.78 inHg , 1008.5 hPa
Clouds: Bezchmurnie
Visibility: 10 miles , 16 km
2020/04/08 22:15 KXBP 082215Z AUTO 27005KT 10SM CLR 33/07 A2978 RMK AO2 T03260070
 
K0F2 - Bowie, Texas, USA
Distance from Wildwood: PnPnZd 24mi, 39km
Aktualizacja: Apr 08, 2020 5:15pm
Bezchmurnie
Bezchmurnie
 Wiatr z Zd
Wiatr: Zd 8 mph , 13 km/h
Temperatura: 91°F , 33°C
Punkt Rosy: 50°F , 10°C
Wilgotność: 24%
Ciśnienie: 29.77 inHg , 1008.1 hPa
Clouds: Bezchmurnie
Visibility: 10 miles , 16 km
2020/04/08 22:15 K0F2 082215Z AUTO 27007KT 10SM CLR 33/10 A2977 RMK AO2 T03300102
KDTO - Denton, Texas, USA
Distance from Wildwood: Ws 27mi, 44km
Aktualizacja: Apr 08, 2020 4:53pm
Bezchmurnie
Bezchmurnie
 Wiatr z ZdPdZa
Wiatr: ZdPdZa 13 mph , 20 km/h, Poryw: 23 mph , 37 km/h
Temperatura: 91°F , 33°C
Punkt Rosy: 48°F , 9°C
Wilgotność: 23%
Ciśnienie: 29.75 inHg , 1007.5 hPa
Clouds: Bezchmurnie
Visibility: 10 miles , 16 km
2020/04/08 21:53 KDTO 082153Z 25011G20KT 10SM CLR 33/09 A2975 RMK AO2 SLP065 T03330094
 
KAFW - Ft Worth/Allianc, Texas, USA
Distance from Wildwood: PdWs 29mi, 46km
Aktualizacja: Apr 08, 2020 4:53pm
Partly Cloudy
Partly Cloudy
 Wiatr z Zd
Wiatr: Zd 14 mph , 22 km/h, Poryw: 24 mph , 39 km/h
Temperatura: 93°F , 34°C
Punkt Rosy: 48°F , 9°C
Wilgotność: 21%
Ciśnienie: 29.75 inHg , 1007.5 hPa
Clouds: Partly Cloudy
Visibility: 9 miles , 14 km
Cloud details: Partly Cloudy 30000 ft
2020/04/08 21:53 KAFW 082153Z 26012G21KT 9SM SCT300 34/09 A2975 RMK AO2 SLP059 T03390089
KFTW - Fort Worth, Texas, USA
Distance from Wildwood: PdPdWs 34mi, 55km
Aktualizacja: Apr 08, 2020 5:03pm
Bezchmurnie
Bezchmurnie
 Wiatr z ZdPdZa
Wiatr: ZdPdZa 13 mph , 20 km/h
Temperatura: 90°F , 32°C
Punkt Rosy: 52°F , 11°C
Wilgotność: 27%
Ciśnienie: 29.75 inHg , 1007.5 hPa
Clouds: Bezchmurnie
Visibility: 10 miles , 16 km
2020/04/08 22:03 KFTW 082203Z 24011KT 10SM CLR 32/11 A2975 RMK AO2 T03220111
 
KNFW - Fort Worth Nas, Texas, USA
Distance from Wildwood: PdPdWs 36mi, 58km
Aktualizacja: Apr 08, 2020 4:52pm
Few Clouds
Few Clouds
 Wiatr z Zd
Wiatr: Zd 15 mph , 24 km/h, Poryw: 22 mph , 35 km/h
Temperatura: 95°F , 35°C
Punkt Rosy: 45°F , 7°C
Wilgotność: 18%
Ciśnienie: 29.76 inHg , 1007.8 hPa
Clouds: Few Clouds
Visibility: 10 miles , 16 km
Cloud details: Few Clouds 15000 ft
Few Clouds 25000 ft
2020/04/08 21:52 KNFW 082152Z 26013G19KT 10SM FEW150 FEW250 35/07 A2976 RMK AO2 SLP063 T03500072 VISNO N $
KGLE - Gainesville, Texas, USA
Distance from Wildwood: PnWs 38mi, 61km
Aktualizacja: Apr 08, 2020 5:15pm
Bezchmurnie
Bezchmurnie
 Wiatr z Zd
Wiatr: Zd 10 mph , 17 km/h
Temperatura: 90°F , 32°C
Punkt Rosy: 52°F , 11°C
Wilgotność: 27%
Ciśnienie: 29.77 inHg , 1008.1 hPa
Clouds: Bezchmurnie
Visibility: 10 miles , 16 km
2020/04/08 22:15 KGLE 082215Z AUTO 27009KT 10SM CLR 32/11 A2977 RMK AO2 T03200105 PWINO
 
KMWL - Mineral Wells, Texas, USA
Distance from Wildwood: PdZd 41mi, 65km
Aktualizacja: Apr 08, 2020 4:53pm
Bezchmurnie
Bezchmurnie
 Wiatr z Zd
Wiatr: Zd 12 mph , 19 km/h
Temperatura: 93°F , 34°C
Punkt Rosy: 43°F , 6°C
Wilgotność: 17%
Ciśnienie: 29.77 inHg , 1008.1 hPa
Clouds: Bezchmurnie
Visibility: 10 miles , 16 km
2020/04/08 21:53 KMWL 082153Z AUTO 27010KT 10SM CLR 34/06 A2977 RMK AO2 SLP068 T03390056
KDFW - Dallas/Ft Worth, Texas, USA
Distance from Wildwood: WsPdWs 45mi, 73km
Aktualizacja: Apr 08, 2020 4:53pm
Partly Cloudy
Partly Cloudy
 Wiatr z Zd
Wiatr: Zd 16 mph , 26 km/h, Poryw: 25 mph , 41 km/h
Temperatura: 97°F , 36°C
Punkt Rosy: 48°F , 9°C
Wilgotność: 19%
Ciśnienie: 29.74 inHg , 1007.1 hPa
Clouds: Partly Cloudy
Visibility: 10 miles , 16 km
Cloud details: Partly Cloudy 30000 ft
2020/04/08 21:53 KDFW 082153Z 26014G22KT 10SM SCT300 36/09 A2974 RMK AO2 SLP060 T03560094